Flight Track Log - Related Links

Times and Time Zones

All times are in EDT time to prevent confusion due to time zone crossing. See the CSN3950 flight status page for this flight to view local times or setup timezone preferences in your user account.

Time Position Orientation Groundspeed Altitude Reporting Facility
EDT Latitude Longitude Course Direction KTS MPH feet Rate Location/Type
Thu 12:54:00 AM 32.7923 103.7468 140° Southeast  Level Estimated
Thu 12:55:00 AM 32.7275 103.8104 140° Southeast  Level Estimated
Thu 12:56:00 AM 32.6748 103.8622 140° Southeast  Level Estimated
Thu 12:57:00 AM 32.6221 103.9138 140° Southeast  Level Estimated
Thu 12:58:00 AM 32.5693 103.9655 140° Southeast  Level Estimated
Thu 12:59:00 AM 32.5165 104.0170 141° Southeast  Level Estimated
Thu 01:00:00 AM 32.4637 104.0685 141° Southeast  Level Estimated
Thu 01:01:00 AM 32.4109 104.1199 141° Southeast  Level Estimated
Thu 01:02:00 AM 32.3581 104.1713 141° Southeast  Level Estimated
Thu 01:03:00 AM 32.3052 104.2226 141° Southeast  Level Estimated
Thu 01:04:00 AM 32.2523 104.2739 141° Southeast  Level Estimated
Thu 01:05:00 AM 32.1994 104.3251 141° Southeast  Level Estimated
Thu 01:06:00 AM 32.1465 104.3762 141° Southeast  Level Estimated
Thu 01:07:00 AM 32.0935 104.4273 141° Southeast  Level Estimated
Thu 01:08:00 AM 32.0406 104.4783 141° Southeast  Level Estimated
Thu 01:09:00 AM 31.9876 104.5292 141° Southeast  Level Estimated
Thu 01:10:00 AM 31.9346 104.5801 141° Southeast  Level Estimated
Thu 01:11:00 AM 31.8816 104.6310 141° Southeast  Level Estimated
Thu 01:12:00 AM 31.8285 104.6817 141° Southeast  Level Estimated
Thu 01:13:00 AM 31.7754 104.7325 141° Southeast  Level Estimated
Thu 01:14:00 AM 31.7224 104.7831 141° Southeast  Level Estimated
Thu 01:15:00 AM 31.6693 104.8337 141° Southeast  Level Estimated
Thu 01:16:00 AM 31.6161 104.8843 141° Southeast  Level Estimated
Thu 01:17:00 AM 31.5630 104.9348 141° Southeast  Level Estimated
Thu 01:18:00 AM 31.5098 104.9852 141° Southeast  Level Estimated
Thu 01:19:00 AM 31.4566 105.0356 141° Southeast  Level Estimated
Thu 01:20:00 AM 31.4034 105.0859 141° Southeast  Level Estimated
Thu 01:21:00 AM 31.3502 105.1361 141° Southeast  Level Estimated
Thu 01:22:00 AM 31.2969 105.1863 141° Southeast  Level Estimated
Thu 01:23:00 AM 31.2437 105.2365 141° Southeast  Level Estimated
Thu 01:24:00 AM 31.1904 105.2866 141° Southeast  Level Estimated
Thu 01:25:00 AM 31.1371 105.3366 141° Southeast  Level Estimated
Thu 01:26:00 AM 31.0838 105.3866 141° Southeast  Level Estimated
Thu 01:27:00 AM 31.0304 105.4365 141° Southeast  Level Estimated
Thu 01:28:00 AM 30.9771 105.4864 141° Southeast  Level Estimated
Thu 01:29:00 AM 30.9237 105.5362 141° Southeast  Level Estimated
Thu 01:30:00 AM 30.8703 105.5860 141° Southeast  Level Estimated
Thu 01:31:00 AM 30.8169 105.6356 141° Southeast  Level Estimated
Thu 01:32:00 AM 30.7634 105.6853 141° Southeast  Level Estimated
Thu 01:33:00 AM 30.7100 105.7349 141° Southeast  Level Estimated
Thu 01:34:00 AM 30.6565 105.7844 141° Southeast  Level Estimated
Thu 01:35:00 AM 30.6030 105.8339 141° Southeast  Level Estimated
Thu 01:36:00 AM 30.5495 105.8833 141° Southeast  Level Estimated
Thu 01:37:00 AM 30.4960 105.9327 142° Southeast  Level Estimated
Thu 01:38:00 AM 30.4424 105.9820 142° Southeast  Level Estimated
Thu 01:39:00 AM 30.3889 106.0312 142° Southeast  Level Estimated
Thu 01:40:00 AM 30.3353 106.0805 142° Southeast  Level Estimated
Thu 01:41:00 AM 30.2817 106.1296 142° Southeast  Level Estimated
Thu 01:42:00 AM 30.2281 106.1787 142° Southeast  Level Estimated
Thu 01:43:00 AM 30.1744 106.2278 142° Southeast  Level Estimated
Thu 01:44:00 AM 30.1207 106.2767 142° Southeast  Level Estimated
Thu 01:45:00 AM 30.0671 106.3257 142° Southeast  Level Estimated
Thu 01:46:00 AM 30.0134 106.3746 142° Southeast  Level Estimated
Thu 01:47:00 AM 29.9597 106.4234 142° Southeast  Level Estimated
Thu 01:48:00 AM 29.9059 106.4722 142° Southeast  Level Estimated
Thu 01:49:00 AM 29.8522 106.5209 142° Southeast  Level Estimated
Thu 01:50:00 AM 29.7984 106.5696 142° Southeast  Level Estimated
Thu 01:51:00 AM 29.7446 106.6182 142° Southeast  Level Estimated
Thu 01:52:00 AM 29.7194 106.6410 142° Southeast  Level Estimated
Thu 01:53:00 AM 29.7194 106.6410 North  Level Estimated
Thu 01:54:00 AM 29.7194 106.6410 North  Level Estimated
Thu 01:55:00 AM 29.7194 106.6410 North  Level Estimated
Thu 01:56:00 AM 29.7194 106.6410 North  Level Estimated
Thu 01:57:00 AM 29.7194 106.6410 North  Level Estimated
Thu 01:58:00 AM 29.7194 106.6410 North  Level Estimated
Thu 01:59:00 AM 29.7194 106.6410 North  Level Estimated
Thu 02:00:00 AM 29.7194 106.6410 North  Level Estimated
Thu 02:01:00 AM 29.7194 106.6410 North  Level Estimated
Thu 02:02:00 AM 29.7194 106.6410 North  Level Estimated
Thu 02:03:00 AM 29.7194 106.6410 North  Level Estimated

Login

Don't have an account? Register now (free) for customized features, flight alerts, and more!